Time;durP1;ratioP1;P1;durP2;ratioP2;P2;SDS_P1;SDS_P2;PMS_P1;PMS_P2;Temp;Humidity;BMP_temperature;BMP_pressure;BME280_temperature;BME280_humidity;BME280_pressure;Samples;Min_cycle;Max_cycle;Signal;HPM_P1;HPM_P2
2023/03/18 00:00:49;;;;;;;6.88;1.13;;;6.40;99.90;;;;;;5091387;28;20385;-54
2023/03/18 00:03:16;;;;;;;5.28;1.13;;;6.40;99.90;;;;;;5090686;28;20098;-51
2023/03/18 00:05:43;;;;;;;7.47;2.97;;;6.40;99.90;;;;;;5090433;28;20040;-53
2023/03/18 00:08:11;;;;;;;9.25;3.75;;;6.40;99.90;;;;;;5098187;28;20449;-51
2023/03/18 00:10:38;;;;;;;;;;;6.20;99.90;;;;;;5105760;28;20074;-52
2023/03/18 00:13:05;;;;;;;7.18;2.85;;;6.00;99.90;;;;;;5111330;28;20299;-52
2023/03/18 00:15:32;;;;;;;4.85;1.95;;;5.90;99.90;;;;;;5100268;28;20040;-53
2023/03/18 00:17:58;;;;;;;9.90;3.70;;;5.80;99.90;;;;;;5090490;28;20044;-53
2023/03/18 00:20:37;;;;;;;8.95;3.25;;;5.80;99.90;;;;;;5090104;28;20048;-51
2023/03/18 00:23:07;;;;;;;5.68;2.92;;;5.80;99.90;;;;;;5090916;28;20044;-53
2023/03/18 00:25:35;;;;;;;10.10;3.80;;;5.80;99.90;;;;;;5101703;28;20553;-53
2023/03/18 00:28:05;;;;;;;10.05;3.15;;;5.70;99.90;;;;;;5112482;28;20130;-50
2023/03/18 00:30:33;;;;;;;5.35;2.63;;;5.70;99.90;;;;;;5107434;28;20042;-52
2023/03/18 00:33:00;;;;;;;7.47;3.20;;;5.70;99.90;;;;;;5073910;28;20044;-50
2023/03/18 00:35:29;;;;;;;8.05;2.90;;;5.60;99.90;;;;;;5093846;28;20115;-52
2023/03/18 00:37:57;;;;;;;4.30;2.15;;;5.70;99.90;;;;;;5076388;28;20051;-51
2023/03/18 00:40:41;;;;;;;6.20;2.47;;;5.70;99.90;;;;;;5079441;28;20039;-50
2023/03/18 00:43:10;;;;;;;5.82;2.78;;;5.70;99.90;;;;;;5088047;28;20557;-51
2023/03/18 00:45:39;;;;;;;10.45;3.35;;;5.70;99.90;;;;;;5114662;28;20049;-50
2023/03/18 00:48:06;;;;;;;10.68;3.28;;;5.70;99.90;;;;;;5104418;28;20040;-51
2023/03/18 00:50:34;;;;;;;6.93;2.35;;;5.70;99.90;;;;;;5093709;28;20036;-51
2023/03/18 00:53:02;;;;;;;5.18;1.80;;;5.50;99.90;;;;;;5075517;28;20093;-52
2023/03/18 00:55:28;;;;;;;;;;;5.30;99.90;;;;;;5093093;28;20056;-52
2023/03/18 00:57:56;;;;;;;8.00;2.65;;;5.20;99.90;;;;;;5075659;28;19927;-52
2023/03/18 01:00:24;;;;;;;4.05;2.33;;;5.20;99.90;;;;;;5091244;28;20070;-51
2023/03/18 01:02:52;;;;;;;5.75;2.70;;;5.20;99.90;;;;;;5071994;28;20044;-52
2023/03/18 01:05:20;;;;;;;8.77;3.15;;;4.90;99.90;;;;;;5074825;28;20089;-55
2023/03/18 01:07:48;;;;;;;5.55;2.28;;;4.90;99.90;;;;;;5075532;28;20048;-52
2023/03/18 01:10:15;;;;;;;7.90;3.13;;;4.90;99.90;;;;;;5082078;28;20048;-51
2023/03/18 01:12:45;;;;;;;9.55;2.95;;;5.00;99.90;;;;;;5090959;28;20067;-50
2023/03/18 01:15:16;;;;;;;7.78;3.22;;;5.00;99.90;;;;;;5114029;28;20043;-53
2023/03/18 01:17:44;;;;;;;14.20;4.05;;;5.10;99.90;;;;;;5079776;28;20040;-53
2023/03/18 01:20:13;;;;;;;7.97;2.78;;;5.10;99.90;;;;;;5074620;28;20044;-51
2023/03/18 01:22:41;;;;;;;6.28;2.40;;;5.00;99.90;;;;;;5074568;28;20040;-51
2023/03/18 01:25:14;;;;;;;7.38;2.60;;;4.80;99.90;;;;;;5074784;28;20528;-50
2023/03/18 01:27:43;;;;;;;6.10;2.95;;;4.70;99.90;;;;;;5079210;28;20037;-52
2023/03/18 01:30:12;;;;;;;10.98;3.45;;;4.70;99.90;;;;;;5064713;28;20043;-50
2023/03/18 01:32:40;;;;;;;5.78;2.47;;;4.70;99.90;;;;;;5065320;28;20044;-50
2023/03/18 01:35:07;;;;;;;7.93;2.28;;;4.70;99.90;;;;;;5074534;28;20056;-51
2023/03/18 01:37:34;;;;;;;8.23;2.53;;;4.60;99.90;;;;;;5074340;28;20496;-52
2023/03/18 01:40:10;;;;;;;7.45;2.70;;;4.40;99.90;;;;;;5071680;28;20048;-53
2023/03/18 01:42:37;;;;;;;6.93;3.10;;;4.40;99.90;;;;;;5074776;28;20519;-51
2023/03/18 01:45:28;;;;;;;5.93;3.05;;;4.40;99.90;;;;;;5091895;28;20408;-51
2023/03/18 01:47:58;;;;;;;9.30;3.42;;;4.50;99.90;;;;;;5083696;28;20036;-50
2023/03/18 01:50:30;;;;;;;8.13;3.60;;;4.40;99.90;;;;;;5077831;28;20116;-50
2023/03/18 01:53:05;;;;;;;5.82;2.97;;;4.50;99.90;;;;;;5090397;28;20101;-51
2023/03/18 01:55:35;;;;;;;8.57;3.03;;;4.50;99.90;;;;;;5085660;28;20040;-50
2023/03/18 01:58:07;;;;;;;9.20;4.10;;;4.60;99.90;;;;;;5091199;28;20072;-51
2023/03/18 02:00:40;;;;;;;6.57;3.45;;;4.50;99.90;;;;;;5093635;28;20499;-50
2023/03/18 02:03:07;;;;;;;8.32;3.70;;;4.50;99.90;;;;;;5111108;28;20043;-50
2023/03/18 02:05:36;;;;;;;7.60;3.55;;;4.50;99.90;;;;;;5079193;28;20130;-50
2023/03/18 02:08:02;;;;;;;5.63;3.15;;;4.60;99.90;;;;;;5073743;28;20106;-51
2023/03/18 02:10:31;;;;;;;5.75;3.10;;;4.60;99.90;;;;;;5073258;28;20060;-50
2023/03/18 02:13:05;;;;;;;7.97;4.53;;;4.70;99.90;;;;;;5069226;28;20492;-50
2023/03/18 02:15:52;;;;;;;5.50;2.95;;;4.60;99.90;;;;;;5074130;28;20645;-54
2023/03/18 02:18:29;;;;;;;9.75;3.33;;;4.60;99.90;;;;;;5072491;28;20048;-50
2023/03/18 02:21:15;;;;;;;4.45;2.40;;;4.60;99.90;;;;;;5091759;28;20056;-50
2023/03/18 02:24:01;;;;;;;3.03;1.45;;;4.40;99.90;;;;;;5081935;28;20135;-52
2023/03/18 02:26:55;;;;;;;6.47;2.38;;;4.20;99.90;;;;;;5070669;28;20501;-50
2023/03/18 02:29:31;;;;;;;3.13;1.75;;;4.10;99.90;;;;;;5073767;28;20455;-51
2023/03/18 02:32:05;;;;;;;3.60;2.00;;;4.10;99.90;;;;;;5073533;28;20105;-54
2023/03/18 02:34:33;;;;;;;5.95;1.60;;;4.20;99.90;;;;;;5091115;28;20036;-50
2023/03/18 02:37:00;;;;;;;5.72;1.75;;;4.20;99.90;;;;;;5091915;28;20481;-50
2023/03/18 02:39:30;;;;;;;;;;;4.20;99.90;;;;;;5072985;28;20469;-53
2023/03/18 02:41:57;;;;;;;3.20;1.55;;;4.20;99.90;;;;;;5073863;28;19924;-51
2023/03/18 02:44:25;;;;;;;4.18;1.83;;;4.20;99.90;;;;;;5067511;28;20044;-52
2023/03/18 02:47:27;;;;;;;3.53;1.50;;;4.20;99.90;;;;;;5062535;28;20443;-51
2023/03/18 02:49:54;;;;;;;4.72;2.85;;;4.20;99.90;;;;;;5069394;28;20134;-55
2023/03/18 02:52:21;;;;;;;3.15;1.63;;;4.20;99.90;;;;;;5072888;28;20408;-54
2023/03/18 02:54:48;;;;;;;3.97;1.42;;;4.20;99.90;;;;;;5072015;28;20039;-54
2023/03/18 02:57:14;;;;;;;3.35;1.48;;;4.30;99.90;;;;;;5084702;28;20056;-54
2023/03/18 02:59:45;;;;;;;5.45;1.60;;;4.40;99.90;;;;;;5092930;28;20118;-53
2023/03/18 03:02:12;;;;;;;;;;;4.40;99.90;;;;;;5073469;28;20044;-54
2023/03/18 03:04:38;;;;;;;2.45;1.30;;;4.40;99.90;;;;;;5087964;28;20412;-52
2023/03/18 03:07:06;;;;;;;7.43;2.50;;;4.20;99.90;;;;;;5073999;28;20074;-51
2023/03/18 03:09:41;;;;;;;3.95;2.50;;;4.20;99.90;;;;;;5072031;28;20516;-50
2023/03/18 03:12:08;;;;;;;3.58;1.50;;;4.30;99.90;;;;;;5091069;28;20044;-53
2023/03/18 03:14:41;;;;;;;2.60;1.10;;;4.40;99.90;;;;;;5069271;28;20125;-55
2023/03/18 03:17:08;;;;;;;1.80;1.00;;;4.40;99.90;;;;;;5082597;28;20055;-51
2023/03/18 03:19:35;;;;;;;4.28;1.85;;;4.30;99.90;;;;;;5092970;28;20051;-55
2023/03/18 03:22:02;;;;;;;7.00;2.33;;;4.40;99.90;;;;;;5080009;28;20558;-52
2023/03/18 03:24:29;;;;;;;3.72;1.67;;;4.40;99.90;;;;;;5072875;28;20036;-53
2023/03/18 03:26:56;;;;;;;4.70;1.88;;;4.30;99.90;;;;;;5072577;28;20048;-52
2023/03/18 03:29:23;;;;;;;5.10;2.03;;;4.30;99.90;;;;;;5076529;28;20097;-54
2023/03/18 03:31:50;;;;;;;2.55;1.10;;;4.30;99.90;;;;;;5068414;28;20565;-50
2023/03/18 03:34:17;;;;;;;4.57;1.40;;;4.30;99.90;;;;;;5064720;28;20105;-52
2023/03/18 03:36:43;;;;;;;4.03;1.42;;;4.30;99.90;;;;;;5071016;28;20052;-51
2023/03/18 03:39:11;;;;;;;3.15;1.65;;;4.20;99.90;;;;;;5072343;28;20036;-53
2023/03/18 03:41:38;;;;;;;4.78;1.92;;;4.00;99.90;;;;;;5089650;28;20063;-51
2023/03/18 03:44:05;;;;;;;5.93;2.22;;;3.90;99.90;;;;;;5074222;28;20044;-52
2023/03/18 03:46:31;;;;;;;4.15;1.70;;;3.80;99.90;;;;;;5084722;28;20092;-51
2023/03/18 03:48:59;;;;;;;10.13;2.63;;;3.80;99.90;;;;;;5081549;28;20459;-51
2023/03/18 03:51:26;;;;;;;5.75;2.50;;;3.90;99.90;;;;;;5090113;28;20035;-50
2023/03/18 03:53:53;;;;;;;4.80;2.00;;;4.00;99.90;;;;;;5072496;28;20044;-50
2023/03/18 03:56:21;;;;;;;6.32;2.20;;;4.00;99.90;;;;;;5073193;28;20048;-54
2023/03/18 03:58:47;;;;;;;3.80;1.83;;;4.00;99.90;;;;;;5089955;28;20454;-53
2023/03/18 04:01:16;;;;;;;5.55;2.63;;;4.10;99.90;;;;;;5076673;28;20036;-53
2023/03/18 04:03:44;;;;;;;3.47;2.05;;;4.20;99.90;;;;;;5076252;28;20047;-50
2023/03/18 04:06:12;;;;;;;5.18;1.35;;;4.20;99.90;;;;;;5074706;28;20544;-51
2023/03/18 04:08:45;;;;;;;5.00;1.20;;;4.10;99.90;;;;;;5076185;28;20040;-50
2023/03/18 04:11:12;;;;;;;4.60;1.75;;;4.10;99.90;;;;;;5118421;22;20090;-49
2023/03/18 04:13:40;;;;;;;10.30;2.10;;;4.00;99.90;;;;;;5092570;28;20123;-50
2023/03/18 04:16:07;;;;;;;7.45;2.70;;;3.80;99.90;;;;;;5096926;28;20130;-49
2023/03/18 04:18:34;;;;;;;8.70;1.65;;;3.80;99.90;;;;;;5114720;28;20049;-49
2023/03/18 04:21:01;;;;;;;3.60;1.30;;;3.80;99.90;;;;;;5105487;28;20035;-51
2023/03/18 04:23:37;;;;;;;6.70;1.60;;;3.90;99.90;;;;;;5100052;28;20047;-49
2023/03/18 04:26:05;;;;;;;8.00;1.23;;;3.80;99.90;;;;;;5096402;28;20077;-49
2023/03/18 04:28:32;;;;;;;4.72;1.10;;;3.90;99.90;;;;;;5096106;28;20503;-51
2023/03/18 04:31:00;;;;;;;5.35;1.20;;;3.80;99.90;;;;;;5091351;28;20079;-49
2023/03/18 04:33:27;;;;;;;4.88;1.40;;;3.80;99.90;;;;;;5096400;28;20506;-49
2023/03/18 04:35:55;;;;;;;6.78;1.10;;;3.80;99.90;;;;;;5091650;28;20044;-50
2023/03/18 04:38:22;;;;;;;;;;;3.90;99.90;;;;;;5096415;28;20040;-49
2023/03/18 04:40:51;;;;;;;;;;;3.90;99.90;;;;;;5095585;28;19920;-50
2023/03/18 04:43:18;;;;;;;5.55;1.63;;;3.90;99.90;;;;;;5096555;28;19943;-49
2023/03/18 04:45:47;;;;;;;6.55;1.45;;;3.90;99.90;;;;;;5094916;28;20055;-51
2023/03/18 04:48:14;;;;;;;5.25;2.92;;;3.90;99.90;;;;;;5086962;28;20048;-48
2023/03/18 04:50:44;;;;;;;2.13;1.30;;;3.90;99.90;;;;;;5095521;28;20031;-49
2023/03/18 04:53:17;;;;;;;4.22;1.67;;;3.90;99.90;;;;;;5075612;28;20453;-49
2023/03/18 04:55:44;;;;;;;4.32;1.55;;;3.90;99.90;;;;;;5085238;28;20036;-53
2023/03/18 04:58:12;;;;;;;4.18;1.90;;;3.80;99.90;;;;;;5094960;28;20036;-49
2023/03/18 05:00:48;;;;;;;4.38;1.60;;;3.90;99.90;;;;;;5095667;28;20040;-51
2023/03/18 05:03:27;;;;;;;7.63;2.35;;;3.90;99.90;;;;;;5095118;28;20514;-49
2023/03/18 05:05:55;;;;;;;4.32;2.13;;;3.90;99.90;;;;;;5078599;28;20044;-50
2023/03/18 05:08:31;;;;;;;3.03;1.73;;;3.90;99.90;;;;;;5092157;28;20557;-50
2023/03/18 05:10:59;;;;;;;6.97;2.20;;;3.90;99.90;;;;;;5091844;28;20039;-49
2023/03/18 05:13:27;;;;;;;5.32;1.92;;;3.90;99.90;;;;;;5095755;28;20139;-51
2023/03/18 05:15:54;;;;;;;5.90;1.65;;;3.80;99.90;;;;;;5095843;28;20046;-50
2023/03/18 05:18:21;;;;;;;8.25;2.00;;;3.80;99.90;;;;;;5092592;28;20047;-52
2023/03/18 05:20:51;;;;;;;4.35;1.70;;;3.90;99.90;;;;;;5078791;28;20119;-51
2023/03/18 05:23:18;;;;;;;4.95;1.30;;;3.90;99.90;;;;;;5081936;28;20135;-49
2023/03/18 05:25:50;;;;;;;3.55;1.50;;;3.90;99.90;;;;;;5086116;28;20404;-52
2023/03/18 05:28:19;;;;;;;5.28;1.75;;;3.90;99.90;;;;;;5084033;28;20128;-49
2023/03/18 05:31:06;;;;;;;3.53;1.40;;;3.90;99.90;;;;;;5101726;28;20419;-49
2023/03/18 05:33:37;;;;;;;2.50;1.38;;;3.80;99.90;;;;;;5073012;28;20516;-51
2023/03/18 05:36:04;;;;;;;4.22;1.95;;;3.80;99.90;;;;;;5091774;28;20055;-49
2023/03/18 05:38:36;;;;;;;5.95;1.60;;;3.90;99.90;;;;;;5090393;28;20068;-48
2023/03/18 05:41:03;;;;;;;2.92;1.63;;;3.90;99.90;;;;;;5092250;28;20059;-50
2023/03/18 05:43:35;;;;;;;2.00;1.40;;;4.00;99.90;;;;;;5095135;28;20042;-51
2023/03/18 05:46:03;;;;;;;4.00;1.60;;;4.00;99.90;;;;;;5094784;28;20060;-51
2023/03/18 05:48:48;;;;;;;5.13;2.28;;;4.10;99.90;;;;;;5113339;28;20054;-50
2023/03/18 05:51:15;;;;;;;5.25;2.80;;;4.20;99.90;;;;;;5106290;28;20071;-54
2023/03/18 05:53:44;;;;;;;12.27;2.95;;;4.20;99.90;;;;;;5093679;28;20043;-48
2023/03/18 05:56:23;;;;;;;10.65;3.58;;;4.30;99.90;;;;;;5073194;28;20044;-52
2023/03/18 05:58:53;;;;;;;11.15;4.88;;;4.30;99.90;;;;;;5073998;28;20067;-50
2023/03/18 06:01:36;;;;;;;7.80;4.40;;;4.40;99.90;;;;;;5080382;28;20051;-49
2023/03/18 06:04:05;;;;;;;10.20;5.60;;;4.40;99.90;;;;;;5094367;28;20122;-50
2023/03/18 06:06:32;;;;;;;10.43;5.60;;;4.50;99.90;;;;;;5094609;28;20043;-50
2023/03/18 06:08:59;;;;;;;12.18;5.65;;;4.50;99.90;;;;;;5094069;28;20040;-50
2023/03/18 06:11:28;;;;;;;;;;;4.60;99.90;;;;;;5104214;28;20039;-49
2023/03/18 06:13:55;;;;;;;7.18;3.58;;;4.50;99.90;;;;;;5079110;28;20011;-52
2023/03/18 06:16:22;;;;;;;7.53;2.58;;;4.50;99.90;;;;;;5094590;28;20435;-50
2023/03/18 06:18:52;;;;;;;4.65;1.25;;;4.50;99.90;;;;;;5093384;28;20043;-51
2023/03/18 06:21:19;;;;;;;6.90;1.67;;;4.50;99.90;;;;;;5094286;28;20104;-51
2023/03/18 06:23:46;;;;;;;7.00;2.17;;;4.60;99.90;;;;;;5084798;28;20036;-51
2023/03/18 06:26:12;;;;;;;7.50;2.45;;;4.60;99.90;;;;;;5112360;28;20046;-50
2023/03/18 06:28:45;;;;;;;3.95;2.30;;;4.70;99.90;;;;;;5093639;28;20058;-49
2023/03/18 06:31:14;;;;;;;6.28;2.30;;;4.80;99.90;;;;;;5093540;28;20147;-49
2023/03/18 06:33:41;;;;;;;6.05;2.25;;;4.90;99.90;;;;;;5090865;28;20075;-49
2023/03/18 06:36:10;;;;;;;4.22;1.98;;;5.00;99.90;;;;;;5084344;28;20054;-51
2023/03/18 06:38:43;;;;;;;5.07;2.25;;;5.10;99.90;;;;;;5074427;28;20044;-51
2023/03/18 06:41:11;;;;;;;5.55;1.80;;;5.10;99.90;;;;;;5090175;28;20051;-48
2023/03/18 06:43:49;;;;;;;5.43;2.20;;;5.20;99.90;;;;;;5086410;28;20618;-55
2023/03/18 06:46:17;;;;;;;6.55;2.50;;;5.20;99.90;;;;;;5110535;28;20439;-50
2023/03/18 06:48:45;;;;;;;8.05;3.20;;;5.40;99.90;;;;;;5093368;28;20055;-53
2023/03/18 06:51:16;;;;;;;12.43;4.60;;;5.50;99.90;;;;;;5093567;28;20063;-51
2023/03/18 06:53:43;;;;;;;9.88;4.78;;;5.60;99.90;;;;;;5088896;28;20118;-49
2023/03/18 06:56:14;;;;;;;7.18;4.00;;;5.70;99.90;;;;;;5093181;28;20047;-52
2023/03/18 06:59:10;;;;;;;6.72;2.88;;;5.80;99.90;;;;;;5091930;28;20054;-49
2023/03/18 07:01:37;;;;;;;16.90;4.85;;;5.90;99.90;;;;;;5110738;28;20476;-51
2023/03/18 07:04:05;;;;;;;15.15;4.05;;;5.90;99.90;;;;;;5083531;28;20055;-49
2023/03/18 07:06:32;;;;;;;13.10;5.45;;;5.80;99.90;;;;;;5089954;28;20072;-53
2023/03/18 07:09:00;;;;;;;18.92;7.95;;;5.70;99.90;;;;;;5091105;28;20047;-50
2023/03/18 07:11:28;;;;;;;14.38;5.53;;;5.70;99.90;;;;;;5093156;28;20556;-52
2023/03/18 07:13:56;;;;;;;12.68;4.75;;;5.80;99.90;;;;;;5093259;28;20460;-50
2023/03/18 07:16:27;;;;;;;18.58;6.32;;;5.80;99.90;;;;;;5093695;28;20039;-51
2023/03/18 07:18:57;;;;;;;10.75;4.82;;;5.90;99.90;;;;;;5088816;28;20051;-49
2023/03/18 07:21:24;;;;;;;14.38;5.20;;;6.00;99.90;;;;;;5089820;28;20400;-50
2023/03/18 07:23:53;;;;;;;10.55;3.97;;;6.10;99.90;;;;;;5090632;28;20539;-52
2023/03/18 07:26:20;;;;;;;13.07;4.03;;;6.20;99.90;;;;;;5093413;28;20039;-50
2023/03/18 07:28:47;;;;;;;14.48;4.85;;;6.30;99.90;;;;;;5091888;28;20105;-49
2023/03/18 07:31:14;;;;;;;7.32;3.50;;;6.40;99.90;;;;;;5093225;28;20086;-50
2023/03/18 07:33:40;;;;;;;11.90;3.83;;;6.50;99.90;;;;;;5111085;28;20043;-51
2023/03/18 07:36:08;;;;;;;10.68;3.88;;;6.70;99.90;;;;;;5092821;28;20048;-51
2023/03/18 07:38:35;;;;;;;7.55;4.35;;;6.80;99.90;;;;;;5115273;28;20040;-54
2023/03/18 07:41:01;;;;;;;12.13;4.00;;;6.90;99.90;;;;;;5115321;28;20059;-51
2023/03/18 07:43:28;;;;;;;9.15;3.47;;;7.00;99.90;;;;;;5097708;28;20118;-50
2023/03/18 07:45:55;;;;;;;8.65;3.80;;;7.20;99.90;;;;;;5114374;28;20032;-50
2023/03/18 07:48:21;;;;;;;13.13;4.07;;;7.30;99.90;;;;;;5103262;28;20098;-50
2023/03/18 07:50:48;;;;;;;7.70;4.03;;;7.40;99.90;;;;;;5095375;28;20531;-51
2023/03/18 07:53:15;;;;;;;14.88;4.10;;;7.40;99.90;;;;;;5110642;28;20067;-50
2023/03/18 07:55:43;;;;;;;6.88;3.30;;;7.60;99.90;;;;;;5115446;28;20104;-49
2023/03/18 07:58:10;;;;;;;8.60;3.72;;;7.80;99.90;;;;;;5113835;28;20078;-50
2023/03/18 08:00:37;;;;;;;7.40;3.25;;;8.00;99.90;;;;;;5114877;28;20120;-52
2023/03/18 08:03:04;;;;;;;5.18;2.50;;;8.10;99.90;;;;;;5114442;28;20039;-50
2023/03/18 08:05:32;;;;;;;9.50;3.45;;;8.10;99.90;;;;;;5114388;28;20725;-50
2023/03/18 08:08:01;;;;;;;8.00;3.50;;;8.30;99.90;;;;;;5096735;28;20443;-51
2023/03/18 08:10:28;;;;;;;12.95;3.75;;;8.40;99.90;;;;;;5093842;28;20044;-50
2023/03/18 08:12:55;;;;;;;6.07;3.33;;;8.50;99.90;;;;;;5093743;28;20040;-49
2023/03/18 08:15:23;;;;;;;;;;;8.60;99.90;;;;;;5112864;28;20121;-50
2023/03/18 08:17:51;;;;;;;4.60;2.85;;;8.80;99.90;;;;;;5115007;28;19942;-50
2023/03/18 08:20:18;;;;;;;7.43;3.53;;;9.00;99.90;;;;;;5114145;28;20074;-53
2023/03/18 08:22:45;;;;;;;6.13;3.88;;;8.90;99.90;;;;;;5114981;28;20085;-51
2023/03/18 08:25:12;;;;;;;6.75;4.03;;;9.00;99.90;;;;;;5103034;28;20078;-53
2023/03/18 08:27:39;;;;;;;7.95;4.13;;;9.00;99.90;;;;;;5108411;28;20036;-50
2023/03/18 08:30:06;;;;;;;7.15;4.05;;;9.00;99.90;;;;;;5113988;28;20077;-52
2023/03/18 08:32:34;;;;;;;9.60;4.32;;;9.10;99.90;;;;;;5114179;28;20568;-49
2023/03/18 08:35:01;;;;;;;7.22;3.70;;;9.30;99.90;;;;;;5114704;28;20051;-50
2023/03/18 08:37:28;;;;;;;;;;;9.40;99.90;;;;;;5112564;28;20039;-50
2023/03/18 08:39:54;;;;;;;5.70;3.47;;;9.50;99.90;;;;;;5095788;28;19963;-50
2023/03/18 08:42:21;;;;;;;8.65;3.47;;;9.60;99.90;;;;;;5114065;28;20105;-50
2023/03/18 08:44:49;;;;;;;5.40;3.50;;;9.70;99.90;;;;;;5114558;28;20048;-51
2023/03/18 08:47:16;;;;;;;7.18;3.35;;;9.80;99.90;;;;;;5109798;28;20044;-51
2023/03/18 08:49:43;;;;;;;6.32;3.50;;;10.00;99.90;;;;;;5102147;28;20044;-49
2023/03/18 08:52:10;;;;;;;9.05;4.15;;;10.10;99.90;;;;;;5093960;28;20048;-50
2023/03/18 08:54:37;;;;;;;8.75;3.53;;;10.40;99.90;;;;;;5110450;28;20114;-50
2023/03/18 08:57:04;;;;;;;14.60;3.22;;;10.40;99.90;;;;;;5114133;28;20441;-50
2023/03/18 08:59:31;;;;;;;7.53;3.08;;;10.70;99.90;;;;;;5113381;28;20126;-51
2023/03/18 09:01:57;;;;;;;10.00;3.45;;;10.90;99.90;;;;;;5103554;28;20044;-54
2023/03/18 09:04:24;;;;;;;12.35;4.25;;;10.90;99.90;;;;;;5093941;28;20074;-51
2023/03/18 09:06:51;;;;;;;6.53;3.75;;;11.00;99.90;;;;;;5093504;28;20044;-52
2023/03/18 09:09:18;;;;;;;5.53;3.60;;;11.00;99.90;;;;;;5092926;28;20094;-54
2023/03/18 09:11:46;;;;;;;5.40;3.35;;;11.30;99.90;;;;;;5097638;28;20488;-50
2023/03/18 09:14:13;;;;;;;5.60;2.88;;;11.50;99.90;;;;;;5093277;28;20461;-51
2023/03/18 09:16:40;;;;;;;7.90;3.05;;;11.60;99.90;;;;;;5111354;28;20074;-51
2023/03/18 09:19:06;;;;;;;5.43;2.60;;;11.60;99.90;;;;;;5112798;28;20072;-50
2023/03/18 09:21:33;;;;;;;7.05;3.38;;;11.70;99.90;;;;;;5094960;28;20044;-51
2023/03/18 09:24:00;;;;;;;5.72;2.90;;;11.90;99.90;;;;;;5113859;28;20039;-50
2023/03/18 09:26:27;;;;;;;6.43;2.88;;;12.00;99.90;;;;;;5100132;28;20047;-50
2023/03/18 09:28:53;;;;;;;6.25;3.40;;;12.10;99.90;;;;;;5099685;28;20028;-49
2023/03/18 09:31:20;;;;;;;8.77;2.88;;;12.00;99.90;;;;;;5093132;28;20048;-52
2023/03/18 09:33:47;;;;;;;8.63;2.50;;;12.10;99.90;;;;;;5092542;28;20044;-49
2023/03/18 09:36:14;;;;;;;4.55;1.90;;;12.30;99.90;;;;;;5090217;28;20453;-50
2023/03/18 09:38:41;;;;;;;5.57;2.03;;;12.30;99.90;;;;;;5092654;28;20071;-51
2023/03/18 09:41:35;;;;;;;5.15;2.47;;;12.50;99.90;;;;;;5092748;28;20089;-50
2023/03/18 09:44:15;;;;;;;5.18;2.40;;;12.70;99.90;;;;;;5098763;28;20065;-49
2023/03/18 09:47:05;;;;;;;8.23;2.80;;;12.80;99.90;;;;;;5101790;28;20420;-51
2023/03/18 09:49:53;;;;;;;5.32;2.58;;;12.90;99.90;;;;;;5092910;28;20381;-52
2023/03/18 09:52:30;;;;;;;6.15;3.28;;;13.10;99.90;;;;;;5102859;28;20118;-51
2023/03/18 09:55:21;;;;;;;6.15;2.67;;;13.30;99.90;;;;;;5113194;28;20047;-50
2023/03/18 09:57:50;;;;;;;6.70;2.75;;;13.40;99.90;;;;;;5111026;28;20076;-50
2023/03/18 10:00:17;;;;;;;8.40;2.70;;;13.50;99.90;;;;;;5111275;28;20446;-51
2023/03/18 10:02:50;;;;;;;5.32;2.55;;;13.30;99.40;;;;;;5096417;28;20086;-50
2023/03/18 10:05:29;;;;;;;7.25;3.20;;;13.40;99.90;;;;;;5091626;28;20044;-50
2023/03/18 10:08:03;;;;;;;9.82;3.58;;;13.40;99.90;;;;;;5093513;28;20044;-53
2023/03/18 10:10:31;;;;;;;9.82;4.53;;;13.60;99.90;;;;;;5109509;22;20078;-54
2023/03/18 10:13:17;;;;;;;6.85;3.75;;;13.70;99.70;;;;;;5092350;28;20452;-50
2023/03/18 10:15:50;;;;;;;5.13;2.72;;;13.90;98.70;;;;;;5091937;28;20048;-52
2023/03/18 10:18:30;;;;;;;4.90;3.03;;;14.10;98.70;;;;;;5096398;27;20400;-52
2023/03/18 10:21:30;;;;;;;6.65;3.22;;;14.20;98.50;;;;;;5106932;28;20057;-53
2023/03/18 10:24:15;;;;;;;8.88;3.67;;;14.20;98.80;;;;;;5111505;28;20096;-53
2023/03/18 10:26:56;;;;;;;5.82;2.92;;;14.40;97.70;;;;;;5111622;28;20407;-53
2023/03/18 10:29:45;;;;;;;6.60;3.97;;;14.30;98.00;;;;;;5112300;28;20454;-52
2023/03/18 10:32:33;;;;;;;4.13;3.03;;;14.00;98.10;;;;;;5103764;27;20078;-53
2023/03/18 10:35:37;;;;;;;6.25;3.28;;;14.00;99.00;;;;;;5110037;28;20089;-51
2023/03/18 10:38:22;;;;;;;4.85;3.15;;;14.10;98.30;;;;;;5112096;28;20050;-52
2023/03/18 10:40:49;;;;;;;7.13;3.38;;;14.00;98.20;;;;;;5112307;28;20131;-52
2023/03/18 10:43:19;;;;;;;8.88;3.63;;;14.10;98.40;;;;;;5108764;28;20493;-52
2023/03/18 10:45:50;;;;;;;4.30;2.90;;;14.10;97.70;;;;;;5107950;28;20472;-53
2023/03/18 10:48:35;;;;;;;5.47;2.47;;;14.20;98.20;;;;;;5111174;27;20057;-54
2023/03/18 10:51:25;;;;;;;7.57;2.50;;;14.30;97.70;;;;;;5111956;28;20133;-50
2023/03/18 10:54:24;;;;;;;7.25;2.70;;;14.50;97.70;;;;;;5100096;28;20109;-56
2023/03/18 10:56:52;;;;;;;;;;;14.60;97.50;;;;;;5066132;28;20101;-55
2023/03/18 10:59:21;;;;;;;8.57;3.03;;;14.70;97.10;;;;;;5099544;28;19919;-52
2023/03/18 11:01:56;;;;;;;5.93;2.88;;;14.80;97.00;;;;;;5107544;28;20430;-50
2023/03/18 11:04:27;;;;;;;5.95;3.13;;;14.90;96.10;;;;;;5103844;28;20032;-54
2023/03/18 11:07:00;;;;;;;7.75;2.90;;;14.90;94.40;;;;;;5111509;27;20397;-50
2023/03/18 11:09:31;;;;;;;6.22;3.08;;;14.80;95.20;;;;;;5110513;28;20043;-52
2023/03/18 11:12:04;;;;;;;7.43;3.03;;;14.80;95.30;;;;;;5110926;28;20044;-52
2023/03/18 11:14:32;;;;;;;4.13;2.55;;;14.90;95.90;;;;;;5106217;28;20101;-55
2023/03/18 11:17:05;;;;;;;8.70;2.90;;;15.10;94.10;;;;;;5108610;28;20075;-50
2023/03/18 11:19:47;;;;;;;5.72;3.08;;;15.20;94.90;;;;;;5111059;28;20050;-53
2023/03/18 11:22:23;;;;;;;6.95;3.15;;;15.30;95.40;;;;;;5111698;28;20441;-52
2023/03/18 11:25:25;;;;;;;8.38;3.30;;;15.40;95.40;;;;;;5109361;28;20043;-51
2023/03/18 11:28:20;;;;;;;5.50;2.47;;;15.40;93.40;;;;;;5078886;28;20051;-50
2023/03/18 11:30:51;;;;;;;5.38;2.85;;;15.50;92.90;;;;;;5102160;28;20461;-53
2023/03/18 11:33:22;;;;;;;3.38;2.28;;;15.50;94.30;;;;;;5111824;28;20480;-53
2023/03/18 11:35:57;;;;;;;8.55;2.40;;;15.60;93.70;;;;;;5102856;28;20082;-53
2023/03/18 11:38:34;;;;;;;6.47;2.78;;;15.70;93.80;;;;;;5090641;28;20435;-54
2023/03/18 11:41:06;;;;;;;3.58;2.40;;;15.80;92.10;;;;;;5099822;28;20072;-52
2023/03/18 11:43:33;;;;;;;3.28;2.15;;;15.70;91.90;;;;;;5111543;28;20067;-51
2023/03/18 11:46:03;;;;;;;7.65;2.72;;;15.70;91.70;;;;;;5111248;28;20047;-51
2023/03/18 11:48:38;;;;;;;4.45;2.50;;;15.80;92.30;;;;;;5111046;28;20126;-52
2023/03/18 11:51:11;;;;;;;6.13;3.03;;;15.80;92.00;;;;;;5102799;28;20047;-50
2023/03/18 11:53:58;;;;;;;6.80;2.72;;;15.80;92.70;;;;;;5111452;28;20043;-56
2023/03/18 11:56:30;;;;;;;6.60;3.30;;;15.90;92.80;;;;;;5107169;28;20421;-54
2023/03/18 11:59:41;;;;;;;4.60;2.55;;;16.00;92.50;;;;;;5108017;28;20074;-52
2023/03/18 12:02:27;;;;;;;5.45;2.88;;;16.10;93.00;;;;;;5037897;28;20053;-51
2023/03/18 12:05:04;;;;;;;8.35;3.47;;;16.10;92.40;;;;;;5110981;28;20036;-53
2023/03/18 12:07:50;;;;;;;7.63;3.03;;;16.30;93.10;;;;;;5096386;28;20035;-55
2023/03/18 12:10:25;;;;;;;7.70;3.05;;;16.40;93.10;;;;;;5111089;28;20036;-54
2023/03/18 12:13:28;;;;;;;9.77;3.28;;;16.50;92.40;;;;;;5107998;28;20131;-52
2023/03/18 12:16:00;;;;;;;5.53;3.13;;;16.60;93.00;;;;;;5111199;28;20056;-52
2023/03/18 12:18:38;;;;;;;7.03;2.92;;;16.70;92.70;;;;;;5110529;28;20092;-51
2023/03/18 12:21:41;;;;;;;4.28;2.83;;;16.80;94.00;;;;;;5113152;27;20047;-51
2023/03/18 12:24:20;;;;;;;8.05;3.17;;;16.90;93.70;;;;;;5114742;28;20071;-51
2023/03/18 12:27:00;;;;;;;8.75;3.22;;;17.10;92.80;;;;;;5114751;28;20043;-54
2023/03/18 12:30:04;;;;;;;3.50;2.17;;;17.20;92.60;;;;;;5113652;28;20067;-54
2023/03/18 12:32:39;;;;;;;4.93;2.22;;;17.10;92.40;;;;;;5112929;28;20048;-54
2023/03/18 12:35:15;;;;;;;4.57;2.30;;;17.20;92.10;;;;;;5111673;27;20100;-53
2023/03/18 12:38:15;;;;;;;3.88;2.08;;;17.40;92.20;;;;;;5112777;28;20446;-50
2023/03/18 12:41:06;;;;;;;3.20;2.00;;;17.40;90.50;;;;;;5111746;28;20036;-52
2023/03/18 12:43:51;;;;;;;5.10;2.50;;;17.50;91.80;;;;;;5108337;27;20032;-54
2023/03/18 12:46:31;;;;;;;5.40;2.15;;;17.60;91.40;;;;;;5114663;28;20043;-51
2023/03/18 12:49:10;;;;;;;6.32;2.40;;;17.50;90.40;;;;;;5113707;28;20040;-50
2023/03/18 12:51:47;;;;;;;3.58;1.88;;;17.30;91.30;;;;;;5111144;28;20035;-50
2023/03/18 12:54:24;;;;;;;4.78;2.25;;;17.40;91.50;;;;;;5113811;28;20063;-51
2023/03/18 12:56:58;;;;;;;3.80;1.80;;;17.50;90.90;;;;;;5114375;28;20051;-51
2023/03/18 13:00:15;;;;;;;4.00;1.88;;;17.60;90.70;;;;;;5101793;27;20504;-54
2023/03/18 13:03:05;;;;;;;6.22;2.10;;;17.70;90.10;;;;;;5093652;28;20473;-51
2023/03/18 13:05:44;;;;;;;4.13;2.25;;;17.80;91.30;;;;;;5093182;27;20044;-52
2023/03/18 13:08:40;;;;;;;5.63;2.20;;;17.80;91.70;;;;;;5111409;27;20063;-50
2023/03/18 13:12:00;;;;;;;6.45;2.50;;;17.90;91.40;;;;;;5113662;28;20096;-50
2023/03/18 13:14:34;;;;;;;;;;;17.80;91.00;;;;;;5044295;28;20187;-50
2023/03/18 13:17:11;;;;;;;5.55;1.92;;;17.80;91.00;;;;;;5050116;28;19959;-51
2023/03/18 13:19:40;;;;;;;7.72;2.60;;;17.80;90.70;;;;;;5078108;27;20121;-51
2023/03/18 13:22:19;;;;;;;5.90;2.25;;;17.80;91.20;;;;;;5105163;28;20539;-52